Time;durP1;ratioP1;P1;durP2;ratioP2;P2;SDS_P1;SDS_P2;PMS_P1;PMS_P2;Temp;Humidity;BMP_temperature;BMP_pressure;BME280_temperature;BME280_humidity;BME280_pressure;Samples;Min_cycle;Max_cycle;Signal;HPM_P1;HPM_P2
2022/10/02 00:01:40;;;;;;;;;;;;;;;;;;5013123;28;19921;-60
2022/10/02 00:04:06;;;;;;;;;;;;;;;;;;5014630;28;20363;-60
2022/10/02 00:06:32;;;;;;;;;;;;;;;;;;5013918;28;19917;-60
2022/10/02 00:08:58;;;;;;;;;;;;;;;;;;5014449;28;19961;-60
2022/10/02 00:11:24;;;;;;;;;;;;;;;;;;5014144;28;19967;-60
2022/10/02 00:13:50;;;;;;;;;;;;;;;;;;5014741;28;19914;-61
2022/10/02 00:16:15;;;;;;;;;;;;;;;;;;5014179;28;21082;-60
2022/10/02 00:18:41;;;;;;;;;;;;;;;;;;5014652;28;20606;-59
2022/10/02 00:21:07;;;;;;;;;;;;;;;;;;5013950;28;19975;-61
2022/10/02 00:23:33;;;;;;;;;;;;;;;;;;5013845;28;19917;-59
2022/10/02 00:25:59;;;;;;;;;;;;;;;;;;5014072;28;20013;-61
2022/10/02 00:28:25;;;;;;;;;;;;;;;;;;5014187;28;19913;-61
2022/10/02 00:30:51;;;;;;;;;;;;;;;;;;5013806;28;19940;-60
2022/10/02 00:33:17;;;;;;;;;;;;;;;;;;5014228;28;19928;-61
2022/10/02 00:35:42;;;;;;;;;;;;;;;;;;5014395;28;19910;-60
2022/10/02 00:38:09;;;;;;;;;;;;;;;;;;5013464;28;19921;-60
2022/10/02 00:40:34;;;;;;;;;;;;;;;;;;5014242;28;20394;-59
2022/10/02 00:43:01;;;;;;;;;;;;;;;;;;5013308;28;19913;-60
2022/10/02 00:45:27;;;;;;;;;;;;;;;;;;5013858;28;19968;-61
2022/10/02 00:47:53;;;;;;;;;;;;;;;;;;5014023;28;19917;-61
2022/10/02 00:50:18;;;;;;;;;;;;;;;;;;5013895;28;20016;-60
2022/10/02 00:52:44;;;;;;;;;;;;;;;;;;5013340;28;19957;-61
2022/10/02 00:55:10;;;;;;;;;;;;;;;;;;5013765;28;19913;-61
2022/10/02 00:57:36;;;;;;;;;;;;;;;;;;5013468;28;19976;-60
2022/10/02 01:00:02;;;;;;;;;;;;;;;;;;5014066;28;19967;-62
2022/10/02 01:02:28;;;;;;;;;;;;;;;;;;5020161;28;20261;-60
2022/10/02 01:04:54;;;;;;;;;;;;;;;;;;5013789;28;19972;-60
2022/10/02 01:07:20;;;;;;;;;;;;;;;;;;5012978;28;20391;-60
2022/10/02 01:09:46;;;;;;;;;;;;;;;;;;5013794;28;19918;-59
2022/10/02 01:12:12;;;;;;;;;;;;;;;;;;5012021;28;20436;-61
2022/10/02 01:14:38;;;;;;;;;;;;;;;;;;5013613;28;19913;-61
2022/10/02 01:17:04;;;;;;;;;;;;;;;;;;5013044;28;19961;-61
2022/10/02 01:19:30;;;;;;;;;;;;;;;;;;5013515;28;19917;-61
2022/10/02 01:21:55;;;;;;;;;;;;;;;;;;5012577;28;19914;-60
2022/10/02 01:24:21;;;;;;;;;;;;;;;;;;5013103;28;19918;-60
2022/10/02 01:26:47;;;;;;;;;;;;;;;;;;5013182;28;20003;-61
2022/10/02 01:29:13;;;;;;;;;;;;;;;;;;5021132;28;20272;-60
2022/10/02 01:31:39;;;;;;;;;;;;;;;;;;5011995;28;19921;-61
2022/10/02 01:34:05;;;;;;;;;;;;;;;;;;5021341;28;19920;-60
2022/10/02 01:36:31;;;;;;;;;;;;;;;;;;5012951;28;19988;-60
2022/10/02 01:38:56;;;;;;;;;;;;;;;;;;5013022;28;19913;-61
2022/10/02 01:41:23;;;;;;;;;;;;;;;;;;5015100;28;20365;-61
2022/10/02 01:43:49;;;;;;;;;;;;;;;;;;5017452;28;19917;-61
2022/10/02 01:46:15;;;;;;;;;;;;;;;;;;5012810;28;20429;-60
2022/10/02 01:48:41;;;;;;;;;;;;;;;;;;5012780;28;19953;-60
2022/10/02 01:51:07;;;;;;;;;;;;;;;;;;5011886;28;20348;-61
2022/10/02 01:53:33;;;;;;;;;;;;;;;;;;5012580;28;19917;-61
2022/10/02 01:56:00;;;;;;;;;;;;;;;;;;5012805;28;19921;-60
2022/10/02 01:58:26;;;;;;;;;;;;;;;;;;5012307;28;19920;-61
2022/10/02 02:00:51;;;;;;;;;;;;;;;;;;5011632;28;20310;-60
2022/10/02 02:03:17;;;;;;;;;;;;;;;;;;5014657;28;19996;-60
2022/10/02 02:05:43;;;;;;;;;;;;;;;;;;5018484;28;20351;-61
2022/10/02 02:08:09;;;;;;;;;;;;;;;;;;5012294;28;19917;-60
2022/10/02 02:10:35;;;;;;;;;;;;;;;;;;5012359;28;19917;-60
2022/10/02 02:13:01;;;;;;;;;;;;;;;;;;5011389;28;20414;-60
2022/10/02 02:15:27;;;;;;;;;;;;;;;;;;5011993;28;19924;-61
2022/10/02 02:17:53;;;;;;;;;;;;;;;;;;5011884;28;20394;-60
2022/10/02 02:20:19;;;;;;;;;;;;;;;;;;5011963;28;19967;-60
2022/10/02 02:22:45;;;;;;;;;;;;;;;;;;5011638;28;20263;-60
2022/10/02 02:25:10;;;;;;;;;;;;;;;;;;5011182;28;19917;-61
2022/10/02 02:27:36;;;;;;;;;;;;;;;;;;5011600;28;20036;-60
2022/10/02 02:30:02;;;;;;;;;;;;;;;;;;5011526;28;19913;-60
2022/10/02 02:32:28;;;;;;;;;;;;;;;;;;5011028;28;19983;-60
2022/10/02 02:34:55;;;;;;;;;;;;;;;;;;5012281;28;19917;-59
2022/10/02 02:37:21;;;;;;;;;;;;;;;;;;5011274;28;20426;-61
2022/10/02 02:39:46;;;;;;;;;;;;;;;;;;5011836;28;19917;-59
2022/10/02 02:42:12;;;;;;;;;;;;;;;;;;5011110;28;20355;-61
2022/10/02 02:44:38;;;;;;;;;;;;;;;;;;5011986;28;19928;-60
2022/10/02 02:47:05;;;;;;;;;;;;;;;;;;5011227;28;19924;-58
2022/10/02 02:49:31;;;;;;;;;;;;;;;;;;5011681;28;19913;-61
2022/10/02 02:51:57;;;;;;;;;;;;;;;;;;5011268;28;19959;-59
2022/10/02 02:54:23;;;;;;;;;;;;;;;;;;5011663;28;19913;-62
2022/10/02 02:56:48;;;;;;;;;;;;;;;;;;5010101;28;20004;-60
2022/10/02 02:59:14;;;;;;;;;;;;;;;;;;5011216;28;19939;-61
2022/10/02 03:01:40;;;;;;;;;;;;;;;;;;5010581;28;19917;-61
2022/10/02 03:04:06;;;;;;;;;;;;;;;;;;5011494;28;19918;-61
2022/10/02 03:06:32;;;;;;;;;;;;;;;;;;5011267;28;20042;-60
2022/10/02 03:08:58;;;;;;;;;;;;;;;;;;5011376;28;19913;-60
2022/10/02 03:11:24;;;;;;;;;;;;;;;;;;5010838;28;20375;-60
2022/10/02 03:13:50;;;;;;;;;;;;;;;;;;5011625;28;19921;-61
2022/10/02 03:16:15;;;;;;;;;;;;;;;;;;5011242;28;20348;-61
2022/10/02 03:18:41;;;;;;;;;;;;;;;;;;5011296;28;19967;-60
2022/10/02 03:21:07;;;;;;;;;;;;;;;;;;5010660;28;19917;-60
2022/10/02 03:23:33;;;;;;;;;;;;;;;;;;5011387;28;19918;-60
2022/10/02 03:25:59;;;;;;;;;;;;;;;;;;5011323;28;19913;-61
2022/10/02 03:28:25;;;;;;;;;;;;;;;;;;5011013;28;19914;-60
2022/10/02 03:30:51;;;;;;;;;;;;;;;;;;5010916;28;20380;-60
2022/10/02 03:33:17;;;;;;;;;;;;;;;;;;5010709;28;19913;-61
2022/10/02 03:35:42;;;;;;;;;;;;;;;;;;5010763;28;19914;-60
2022/10/02 03:38:08;;;;;;;;;;;;;;;;;;5010858;28;19913;-61
2022/10/02 03:40:34;;;;;;;;;;;;;;;;;;5011241;28;20012;-59
2022/10/02 03:43:00;;;;;;;;;;;;;;;;;;5010752;28;19916;-60
2022/10/02 03:45:26;;;;;;;;;;;;;;;;;;5010762;28;19988;-61
2022/10/02 03:47:52;;;;;;;;;;;;;;;;;;5010970;28;19913;-61
2022/10/02 03:50:18;;;;;;;;;;;;;;;;;;5010656;28;19917;-61
2022/10/02 03:52:44;;;;;;;;;;;;;;;;;;5010646;28;19913;-61
2022/10/02 03:55:09;;;;;;;;;;;;;;;;;;5010997;28;20441;-60
2022/10/02 03:57:35;;;;;;;;;;;;;;;;;;5010638;28;20037;-61
2022/10/02 04:00:01;;;;;;;;;;;;;;;;;;5011243;28;19910;-61
2022/10/02 04:02:27;;;;;;;;;;;;;;;;;;5008620;28;19957;-62
2022/10/02 04:04:53;;;;;;;;;;;;;;;;;;5010237;28;19968;-63
2022/10/02 04:07:19;;;;;;;;;;;;;;;;;;5010331;28;19910;-63
2022/10/02 04:09:45;;;;;;;;;;;;;;;;;;5011969;28;19917;-63
2022/10/02 04:12:11;;;;;;;;;;;;;;;;;;5010961;28;19918;-63
2022/10/02 04:14:38;;;;;;;;;;;;;;;;;;5011267;28;19968;-62
2022/10/02 04:17:04;;;;;;;;;;;;;;;;;;5009006;28;19918;-62
2022/10/02 04:19:29;;;;;;;;;;;;;;;;;;5011077;28;19922;-61
2022/10/02 04:21:55;;;;;;;;;;;;;;;;;;5008969;28;20028;-62
2022/10/02 04:24:21;;;;;;;;;;;;;;;;;;5008401;28;20394;-62
2022/10/02 04:26:47;;;;;;;;;;;;;;;;;;5016351;28;19971;-61
2022/10/02 04:29:13;;;;;;;;;;;;;;;;;;5013554;28;20287;-62
2022/10/02 04:31:39;;;;;;;;;;;;;;;;;;5005501;28;19929;-61
2022/10/02 04:34:05;;;;;;;;;;;;;;;;;;5006903;28;19964;-62
2022/10/02 04:36:31;;;;;;;;;;;;;;;;;;5009784;28;19928;-61
2022/10/02 04:38:57;;;;;;;;;;;;;;;;;;5010864;28;19968;-63
2022/10/02 04:41:22;;;;;;;;;;;;;;;;;;5010096;28;20359;-63
2022/10/02 04:43:48;;;;;;;;;;;;;;;;;;5006278;28;20372;-61
2022/10/02 04:46:14;;;;;;;;;;;;;;;;;;5007435;28;19948;-62
2022/10/02 04:48:40;;;;;;;;;;;;;;;;;;5013607;28;20532;-61
2022/10/02 04:51:06;;;;;;;;;;;;;;;;;;5013818;28;19913;-60
2022/10/02 04:53:32;;;;;;;;;;;;;;;;;;5012667;28;19961;-62
2022/10/02 04:55:58;;;;;;;;;;;;;;;;;;5012800;28;19914;-62
2022/10/02 04:58:24;;;;;;;;;;;;;;;;;;5014041;28;19917;-62
2022/10/02 05:00:50;;;;;;;;;;;;;;;;;;5013927;28;19918;-62
2022/10/02 05:03:15;;;;;;;;;;;;;;;;;;5013839;28;19925;-62
2022/10/02 05:05:41;;;;;;;;;;;;;;;;;;5013376;28;19914;-60
2022/10/02 05:08:07;;;;;;;;;;;;;;;;;;5022091;28;19960;-60
2022/10/02 05:10:33;;;;;;;;;;;;;;;;;;5013983;28;19983;-60
2022/10/02 05:12:59;;;;;;;;;;;;;;;;;;5013372;28;19917;-58
2022/10/02 05:15:25;;;;;;;;;;;;;;;;;;5022123;28;20275;-61
2022/10/02 05:17:51;;;;;;;;;;;;;;;;;;5013772;28;19989;-60
2022/10/02 05:20:17;;;;;;;;;;;;;;;;;;5012811;28;19914;-61
2022/10/02 05:22:43;;;;;;;;;;;;;;;;;;5013072;28;19917;-62
2022/10/02 05:25:09;;;;;;;;;;;;;;;;;;5013693;28;19921;-61
2022/10/02 05:27:35;;;;;;;;;;;;;;;;;;5012968;28;19963;-62
2022/10/02 05:30:00;;;;;;;;;;;;;;;;;;5013554;28;20347;-60
2022/10/02 05:32:26;;;;;;;;;;;;;;;;;;5012486;28;19922;-61
2022/10/02 05:34:52;;;;;;;;;;;;;;;;;;5018749;28;19913;-60
2022/10/02 05:37:18;;;;;;;;;;;;;;;;;;5015773;28;20001;-64
2022/10/02 05:39:44;;;;;;;;;;;;;;;;;;4977471;28;19957;-63
2022/10/02 05:42:10;;;;;;;;;;;;;;;;;;5012568;28;19918;-62
2022/10/02 05:44:36;;;;;;;;;;;;;;;;;;5013152;28;19984;-60
2022/10/02 05:47:02;;;;;;;;;;;;;;;;;;5011172;28;20329;-59
2022/10/02 05:49:28;;;;;;;;;;;;;;;;;;5012919;28;19917;-63
2022/10/02 05:51:55;;;;;;;;;;;;;;;;;;5007486;28;20016;-63
2022/10/02 05:54:21;;;;;;;;;;;;;;;;;;4999839;28;19913;-63
2022/10/02 05:56:46;;;;;;;;;;;;;;;;;;5010644;28;19913;-64
2022/10/02 05:59:12;;;;;;;;;;;;;;;;;;5010762;28;20225;-65
2022/10/02 06:01:38;;;;;;;;;;;;;;;;;;5008275;28;20127;-59
2022/10/02 06:04:04;;;;;;;;;;;;;;;;;;5010881;28;19925;-63
2022/10/02 06:06:30;;;;;;;;;;;;;;;;;;4992469;28;20401;-63
2022/10/02 06:08:57;;;;;;;;;;;;;;;;;;5011136;28;19917;-64
2022/10/02 06:11:23;;;;;;;;;;;;;;;;;;5010058;28;19921;-64
2022/10/02 06:13:49;;;;;;;;;;;;;;;;;;5010507;28;19924;-62
2022/10/02 06:16:14;;;;;;;;;;;;;;;;;;5008500;28;19917;-62
2022/10/02 06:18:40;;;;;;;;;;;;;;;;;;5010499;28;19964;-63
2022/10/02 06:21:06;;;;;;;;;;;;;;;;;;5009659;28;19918;-62
2022/10/02 06:23:32;;;;;;;;;;;;;;;;;;5010064;28;19918;-64
2022/10/02 06:25:58;;;;;;;;;;;;;;;;;;5010585;28;19957;-61
2022/10/02 06:28:24;;;;;;;;;;;;;;;;;;5009740;28;20601;-64
2022/10/02 06:30:50;;;;;;;;;;;;;;;;;;5008463;28;20257;-62
2022/10/02 06:33:16;;;;;;;;;;;;;;;;;;5010514;28;19917;-60
2022/10/02 06:35:42;;;;;;;;;;;;;;;;;;5009678;28;19948;-65
2022/10/02 06:38:08;;;;;;;;;;;;;;;;;;5010529;28;19913;-61
2022/10/02 06:40:34;;;;;;;;;;;;;;;;;;5009866;28;19959;-62
2022/10/02 06:42:59;;;;;;;;;;;;;;;;;;5008881;28;19910;-61
2022/10/02 06:45:25;;;;;;;;;;;;;;;;;;5008451;28;19914;-62
2022/10/02 06:47:52;;;;;;;;;;;;;;;;;;5010315;28;19921;-63
2022/10/02 06:50:18;;;;;;;;;;;;;;;;;;5009984;28;19914;-61
2022/10/02 06:52:44;;;;;;;;;;;;;;;;;;4992098;28;19920;-62
2022/10/02 06:55:10;;;;;;;;;;;;;;;;;;5010584;28;19921;-63
2022/10/02 06:57:36;;;;;;;;;;;;;;;;;;5008735;28;19940;-64
2022/10/02 07:00:04;;;;;;;;;;;;;;;;;;5009352;28;19914;-61
2022/10/02 07:02:31;;;;;;;;;;;;;;;;;;5012495;28;19921;-66
2022/10/02 07:04:57;;;;;;;;;;;;;;;;;;5010088;28;19917;-65
2022/10/02 07:07:23;;;;;;;;;;;;;;;;;;5011502;28;19920;-66
2022/10/02 07:09:49;;;;;;;;;;;;;;;;;;5009851;28;19917;-64
2022/10/02 07:12:15;;;;;;;;;;;;;;;;;;5010897;28;19913;-65
2022/10/02 07:14:40;;;;;;;;;;;;;;;;;;5011693;28;19963;-64
2022/10/02 07:17:06;;;;;;;;;;;;;;;;;;5011528;28;20016;-71
2022/10/02 07:19:32;;;;;;;;;;;;;;;;;;4993719;28;19937;-69
2022/10/02 07:21:58;;;;;;;;;;;;;;;;;;5009755;28;19909;-67
2022/10/02 07:24:24;;;;;;;;;;;;;;;;;;5011536;28;19925;-68
2022/10/02 07:26:50;;;;;;;;;;;;;;;;;;5010948;28;19913;-71
2022/10/02 07:29:16;;;;;;;;;;;;;;;;;;5011810;28;19937;-71
2022/10/02 07:31:42;;;;;;;;;;;;;;;;;;5021078;28;19921;-69
2022/10/02 07:34:12;;;;;;;;;;;;;;;;;;5031340;28;19917;-70
2022/10/02 07:36:38;;;;;;;;;;;;;;;;;;5031035;28;20426;-72
2022/10/02 07:39:04;;;;;;;;;;;;;;;;;;5037625;28;19957;-70
2022/10/02 07:41:30;;;;;;;;;;;;;;;;;;5032591;28;19913;-68
2022/10/02 07:43:56;;;;;;;;;;;;;;;;;;5031739;28;19928;-69
2022/10/02 07:46:21;;;;;;;;;;;;;;;;;;5030494;28;20402;-66
2022/10/02 07:48:48;;;;;;;;;;;;;;;;;;5030993;28;20003;-71
2022/10/02 07:53:58;;;;;;;;;;;;;;;;;;5031614;28;20498;-67
2022/10/02 07:56:24;;;;;;;;;;;;;;;;;;5030118;28;19952;-68
2022/10/02 07:58:50;;;;;;;;;;;;;;;;;;5030907;28;19913;-69
2022/10/02 08:01:16;;;;;;;;;;;;;;;;;;5021187;28;19925;-68
2022/10/02 08:03:42;;;;;;;;;;;;;;;;;;5010266;28;19926;-66
2022/10/02 08:06:08;;;;;;;;;;;;;;;;;;5010751;28;20291;-69
2022/10/02 08:08:34;;;;;;;;;;;;;;;;;;5010563;28;19920;-70
2022/10/02 08:11:00;;;;;;;;;;;;;;;;;;5010232;28;20439;-67
2022/10/02 08:13:27;;;;;;;;;;;;;;;;;;5011100;28;19914;-64
2022/10/02 08:15:53;;;;;;;;;;;;;;;;;;5010439;28;19923;-68
2022/10/02 08:18:18;;;;;;;;;;;;;;;;;;5010736;28;19913;-67
2022/10/02 08:20:45;;;;;;;;;;;;;;;;;;5021586;28;19979;-70
2022/10/02 08:23:11;;;;;;;;;;;;;;;;;;5018987;28;19928;-69
2022/10/02 08:25:37;;;;;;;;;;;;;;;;;;5012396;28;20361;-67
2022/10/02 08:28:02;;;;;;;;;;;;;;;;;;5014854;28;19914;-68
2022/10/02 08:30:28;;;;;;;;;;;;;;;;;;5013704;28;20322;-65
2022/10/02 08:32:54;;;;;;;;;;;;;;;;;;5013557;28;19948;-67
2022/10/02 08:35:20;;;;;;;;;;;;;;;;;;5014323;28;19914;-69
2022/10/02 08:37:46;;;;;;;;;;;;;;;;;;5014692;28;19913;-67
2022/10/02 08:40:12;;;;;;;;;;;;;;;;;;5014200;28;19964;-66
2022/10/02 08:42:38;;;;;;;;;;;;;;;;;;5013545;28;20008;-68
2022/10/02 08:45:04;;;;;;;;;;;;;;;;;;5022700;28;20449;-65
2022/10/02 08:47:32;;;;;;;;;;;;;;;;;;5014163;28;20295;-66
2022/10/02 08:49:57;;;;;;;;;;;;;;;;;;5021175;28;19914;-65
2022/10/02 08:52:23;;;;;;;;;;;;;;;;;;5013475;28;19916;-65
2022/10/02 08:54:49;;;;;;;;;;;;;;;;;;5013925;28;19914;-65
2022/10/02 08:57:15;;;;;;;;;;;;;;;;;;5013637;28;19964;-66
2022/10/02 08:59:41;;;;;;;;;;;;;;;;;;5013706;28;19967;-65
2022/10/02 09:02:08;;;;;;;;;;;;;;;;;;5012354;28;19967;-65
2022/10/02 09:04:39;;;;;;;;;;;;;;;;;;5013642;28;20380;-63
2022/10/02 09:07:05;;;;;;;;;;;;;;;;;;5015035;28;19914;-64
2022/10/02 09:09:31;;;;;;;;;;;;;;;;;;5010588;28;19921;-64
2022/10/02 09:11:58;;;;;;;;;;;;;;;;;;5015860;28;19913;-64
2022/10/02 09:14:24;;;;;;;;;;;;;;;;;;5026146;28;19968;-66
2022/10/02 09:16:50;;;;;;;;;;;;;;;;;;5011583;28;19983;-64
2022/10/02 09:19:18;;;;;;;;;;;;;;;;;;5011374;28;20454;-66
2022/10/02 09:21:43;;;;;;;;;;;;;;;;;;5018880;28;20367;-64
2022/10/02 09:24:09;;;;;;;;;;;;;;;;;;5011255;28;19929;-66
2022/10/02 09:26:35;;;;;;;;;;;;;;;;;;5011070;28;20334;-66
2022/10/02 09:29:01;;;;;;;;;;;;;;;;;;5018482;28;19924;-66
2022/10/02 09:31:28;;;;;;;;;;;;;;;;;;5007953;28;20011;-67
2022/10/02 09:33:54;;;;;;;;;;;;;;;;;;5008028;28;20081;-65
2022/10/02 09:36:23;;;;;;;;;;;;;;;;;;5010192;28;20071;-67
2022/10/02 09:38:49;;;;;;;;;;;;;;;;;;5010679;28;19959;-67
2022/10/02 09:41:15;;;;;;;;;;;;;;;;;;5010986;28;20318;-66
2022/10/02 09:43:42;;;;;;;;;;;;;;;;;;5010925;28;19928;-65
2022/10/02 09:46:09;;;;;;;;;;;;;;;;;;5010787;28;19913;-66
2022/10/02 09:48:35;;;;;;;;;;;;;;;;;;5010507;28;19921;-64
2022/10/02 09:51:01;;;;;;;;;;;;;;;;;;5010297;28;19918;-67
2022/10/02 09:53:26;;;;;;;;;;;;;;;;;;5010998;28;19920;-64
2022/10/02 09:55:52;;;;;;;;;;;;;;;;;;5010442;28;19917;-68
2022/10/02 09:58:18;;;;;;;;;;;;;;;;;;5010486;28;20555;-68
2022/10/02 10:00:45;;;;;;;;;;;;;;;;;;5014969;28;19925;-68
2022/10/02 10:03:11;;;;;;;;;;;;;;;;;;5027859;28;19913;-68
2022/10/02 10:05:38;;;;;;;;;;;;;;;;;;5031127;28;19921;-67
2022/10/02 10:08:04;;;;;;;;;;;;;;;;;;5030406;28;19913;-66
2022/10/02 10:10:29;;;;;;;;;;;;;;;;;;5024037;28;19914;-68
2022/10/02 10:12:55;;;;;;;;;;;;;;;;;;5023922;28;19913;-68
2022/10/02 10:15:21;;;;;;;;;;;;;;;;;;5031896;28;20497;-67
2022/10/02 10:17:50;;;;;;;;;;;;;;;;;;5028397;28;19956;-68
2022/10/02 10:20:16;;;;;;;;;;;;;;;;;;5032195;28;19913;-67
2022/10/02 10:22:42;;;;;;;;;;;;;;;;;;5033249;28;19917;-68
2022/10/02 10:25:09;;;;;;;;;;;;;;;;;;5038446;28;19921;-67
2022/10/02 10:27:35;;;;;;;;;;;;;;;;;;5031435;28;19909;-68
2022/10/02 10:30:02;;;;;;;;;;;;;;;;;;5032805;28;19917;-69
2022/10/02 10:32:29;;;;;;;;;;;;;;;;;;5013376;28;19914;-67
2022/10/02 10:34:55;;;;;;;;;;;;;;;;;;5014448;28;19917;-68
2022/10/02 10:40:05;;;;;;;;;;;;;;;;;;5011458;28;19967;-67
2022/10/02 10:42:32;;;;;;;;;;;;;;;;;;5011419;28;19921;-67
2022/10/02 10:44:59;;;;;;;;;;;;;;;;;;5017880;28;19924;-67
2022/10/02 10:47:25;;;;;;;;;;;;;;;;;;5011331;28;19909;-67
2022/10/02 10:50:01;;;;;;;;;;;;;;;;;;5010719;28;19913;-68
2022/10/02 10:52:27;;;;;;;;;;;;;;;;;;5019165;28;20001;-69
2022/10/02 10:54:53;;;;;;;;;;;;;;;;;;5011961;28;19933;-67
2022/10/02 10:57:19;;;;;;;;;;;;;;;;;;5007214;28;19926;-67
2022/10/02 10:59:45;;;;;;;;;;;;;;;;;;5011608;28;19910;-67
2022/10/02 11:02:13;;;;;;;;;;;;;;;;;;5016999;28;19996;-66
2022/10/02 11:04:39;;;;;;;;;;;;;;;;;;5011877;28;19925;-69
2022/10/02 11:07:06;;;;;;;;;;;;;;;;;;5009969;28;19913;-68
2022/10/02 11:09:32;;;;;;;;;;;;;;;;;;5010513;28;19914;-68
2022/10/02 11:11:58;;;;;;;;;;;;;;;;;;5017874;28;19917;-70
2022/10/02 11:14:25;;;;;;;;;;;;;;;;;;5010889;28;19913;-68
2022/10/02 11:16:51;;;;;;;;;;;;;;;;;;5010928;28;19928;-68
2022/10/02 11:19:17;;;;;;;;;;;;;;;;;;5011776;28;19920;-70
2022/10/02 11:21:43;;;;;;;;;;;;;;;;;;5010626;28;19914;-65
2022/10/02 11:24:09;;;;;;;;;;;;;;;;;;5011107;28;20446;-65
2022/10/02 11:26:35;;;;;;;;;;;;;;;;;;5011060;28;19917;-68
2022/10/02 11:29:00;;;;;;;;;;;;;;;;;;5011468;28;20007;-68
2022/10/02 11:31:26;;;;;;;;;;;;;;;;;;5010023;28;19917;-67
2022/10/02 11:33:52;;;;;;;;;;;;;;;;;;5009135;28;20586;-67
2022/10/02 11:36:18;;;;;;;;;;;;;;;;;;5011327;28;20279;-67
2022/10/02 11:38:45;;;;;;;;;;;;;;;;;;5010842;28;19986;-65
2022/10/02 11:41:12;;;;;;;;;;;;;;;;;;5019033;28;19953;-69
2022/10/02 11:43:37;;;;;;;;;;;;;;;;;;5011324;28;20268;-68
2022/10/02 11:46:03;;;;;;;;;;;;;;;;;;5019216;28;20012;-66
2022/10/02 11:48:32;;;;;;;;;;;;;;;;;;5011767;28;19933;-67
2022/10/02 11:50:57;;;;;;;;;;;;;;;;;;5010555;28;19955;-66
2022/10/02 11:53:23;;;;;;;;;;;;;;;;;;5011145;28;19961;-67
2022/10/02 11:55:49;;;;;;;;;;;;;;;;;;5011374;28;20198;-67
2022/10/02 11:58:15;;;;;;;;;;;;;;;;;;5015406;28;19914;-69
2022/10/02 12:00:42;;;;;;;;;;;;;;;;;;5014277;28;20311;-68
2022/10/02 12:03:09;;;;;;;;;;;;;;;;;;5019235;28;19917;-66
2022/10/02 12:05:35;;;;;;;;;;;;;;;;;;5011209;28;19917;-66
2022/10/02 12:08:01;;;;;;;;;;;;;;;;;;5012572;28;19918;-68
2022/10/02 12:10:26;;;;;;;;;;;;;;;;;;5012918;28;20291;-67
2022/10/02 12:12:53;;;;;;;;;;;;;;;;;;5012441;28;19914;-67
2022/10/02 12:15:22;;;;;;;;;;;;;;;;;;5008259;28;19924;-67
2022/10/02 12:17:52;;;;;;;;;;;;;;;;;;5018892;28;19987;-67
2022/10/02 12:28:31;;;;;;;;;;;;;;;;;;5014358;28;19925;-67
2022/10/02 12:31:00;;;;;;;;;;;;;;;;;;5021324;28;20186;-66
2022/10/02 12:33:26;;;;;;;;;;;;;;;;;;5008707;28;19917;-66
2022/10/02 12:38:36;;;;;;;;;;;;;;;;;;4976655;28;20398;-65
2022/10/02 12:41:07;;;;;;;;;;;;;;;;;;4993399;28;19913;-65
2022/10/02 12:43:33;;;;;;;;;;;;;;;;;;4986390;28;19953;-65
2022/10/02 12:45:59;;;;;;;;;;;;;;;;;;4981496;28;20545;-66
2022/10/02 12:48:25;;;;;;;;;;;;;;;;;;4977054;28;19918;-66
2022/10/02 12:50:51;;;;;;;;;;;;;;;;;;4990095;28;19921;-66
2022/10/02 12:53:17;;;;;;;;;;;;;;;;;;4989173;28;19914;-66
2022/10/02 12:55:43;;;;;;;;;;;;;;;;;;4975951;28;19921;-66
2022/10/02 12:58:09;;;;;;;;;;;;;;;;;;4962728;28;19917;-67
2022/10/02 13:00:35;;;;;;;;;;;;;;;;;;4977253;28;20371;-66
2022/10/02 13:03:04;;;;;;;;;;;;;;;;;;4974888;28;19914;-66
2022/10/02 13:05:30;;;;;;;;;;;;;;;;;;4974054;28;20264;-65
2022/10/02 13:07:56;;;;;;;;;;;;;;;;;;4976383;28;20013;-65
2022/10/02 13:10:22;;;;;;;;;;;;;;;;;;4989773;28;20574;-66
2022/10/02 13:12:49;;;;;;;;;;;;;;;;;;4974491;28;19922;-66
2022/10/02 13:15:16;;;;;;;;;;;;;;;;;;4974085;28;20359;-66
2022/10/02 13:17:45;;;;;;;;;;;;;;;;;;4974304;28;20379;-66
2022/10/02 13:20:10;;;;;;;;;;;;;;;;;;4974596;28;19964;-66
2022/10/02 13:22:36;;;;;;;;;;;;;;;;;;4975230;28;19918;-67
2022/10/02 13:25:03;;;;;;;;;;;;;;;;;;4992306;28;19918;-66
2022/10/02 13:27:29;;;;;;;;;;;;;;;;;;4977980;28;19944;-67
2022/10/02 13:29:54;;;;;;;;;;;;;;;;;;4993244;28;19914;-66
2022/10/02 13:32:21;;;;;;;;;;;;;;;;;;4997163;28;19933;-66
2022/10/02 13:34:47;;;;;;;;;;;;;;;;;;4992309;28;20031;-66
2022/10/02 13:37:14;;;;;;;;;;;;;;;;;;4982337;28;19957;-67
2022/10/02 13:39:40;;;;;;;;;;;;;;;;;;4961390;28;20302;-67
2022/10/02 13:42:06;;;;;;;;;;;;;;;;;;4993867;28;19997;-67
2022/10/02 13:44:32;;;;;;;;;;;;;;;;;;4977792;28;19918;-67
2022/10/02 13:46:58;;;;;;;;;;;;;;;;;;4973062;28;19941;-67
2022/10/02 13:49:24;;;;;;;;;;;;;;;;;;4974151;28;20584;-68
2022/10/02 13:51:50;;;;;;;;;;;;;;;;;;4984438;28;19921;-68
2022/10/02 13:54:16;;;;;;;;;;;;;;;;;;4987795;28;19950;-67
2022/10/02 13:56:42;;;;;;;;;;;;;;;;;;4980717;28;19914;-67
2022/10/02 13:59:08;;;;;;;;;;;;;;;;;;4973949;28;19911;-68
2022/10/02 14:01:34;;;;;;;;;;;;;;;;;;4988696;28;19924;-67
2022/10/02 14:04:00;;;;;;;;;;;;;;;;;;4985241;28;19922;-67
2022/10/02 14:06:26;;;;;;;;;;;;;;;;;;4977175;28;19918;-68
2022/10/02 14:08:52;;;;;;;;;;;;;;;;;;4973421;28;19969;-66
2022/10/02 14:11:18;;;;;;;;;;;;;;;;;;4976229;28;19917;-67
2022/10/02 14:13:44;;;;;;;;;;;;;;;;;;4974978;28;20277;-67
2022/10/02 14:16:10;;;;;;;;;;;;;;;;;;4990951;28;20442;-68
2022/10/02 14:18:35;;;;;;;;;;;;;;;;;;4976764;28;19911;-68
2022/10/02 14:21:01;;;;;;;;;;;;;;;;;;4980969;28;19973;-67
2022/10/02 14:23:27;;;;;;;;;;;;;;;;;;4973411;28;20417;-67
2022/10/02 14:25:53;;;;;;;;;;;;;;;;;;4983020;28;19921;-68
2022/10/02 14:28:19;;;;;;;;;;;;;;;;;;4978657;28;19914;-67
2022/10/02 14:30:45;;;;;;;;;;;;;;;;;;4982653;28;19925;-67
2022/10/02 14:33:11;;;;;;;;;;;;;;;;;;4991351;28;20351;-66
2022/10/02 14:35:37;;;;;;;;;;;;;;;;;;4975068;28;19914;-67
2022/10/02 14:38:02;;;;;;;;;;;;;;;;;;4973013;28;20016;-67
2022/10/02 14:40:30;;;;;;;;;;;;;;;;;;4981475;28;19914;-67
2022/10/02 14:42:55;;;;;;;;;;;;;;;;;;4980975;28;19961;-67
2022/10/02 14:45:21;;;;;;;;;;;;;;;;;;4977248;28;19945;-67
2022/10/02 14:47:47;;;;;;;;;;;;;;;;;;4972895;28;20379;-67
2022/10/02 14:50:13;;;;;;;;;;;;;;;;;;4981255;28;19918;-67
2022/10/02 14:52:39;;;;;;;;;;;;;;;;;;4989697;28;19968;-67
2022/10/02 14:55:05;;;;;;;;;;;;;;;;;;4987404;28;19972;-67
2022/10/02 14:57:31;;;;;;;;;;;;;;;;;;4988742;28;20327;-67
2022/10/02 14:59:57;;;;;;;;;;;;;;;;;;4989151;28;19914;-67
2022/10/02 15:02:23;;;;;;;;;;;;;;;;;;4972248;28;20279;-66
2022/10/02 15:04:49;;;;;;;;;;;;;;;;;;4980448;28;19956;-67
2022/10/02 15:07:15;;;;;;;;;;;;;;;;;;4986265;28;19921;-67
2022/10/02 15:09:41;;;;;;;;;;;;;;;;;;4992138;28;19917;-66
2022/10/02 15:12:07;;;;;;;;;;;;;;;;;;4987654;28;19918;-67
2022/10/02 15:14:33;;;;;;;;;;;;;;;;;;4980837;28;19915;-67
2022/10/02 15:19:44;;;;;;;;;;;;;;;;;;4983987;28;20294;-67
2022/10/02 15:22:12;;;;;;;;;;;;;;;;;;4986843;28;19924;-67
2022/10/02 15:24:38;;;;;;;;;;;;;;;;;;4989197;28;19980;-70
2022/10/02 15:27:03;;;;;;;;;;;;;;;;;;4979448;28;19918;-66
2022/10/02 15:29:29;;;;;;;;;;;;;;;;;;4980222;28;19921;-68
2022/10/02 15:31:55;;;;;;;;;;;;;;;;;;4992132;28;19918;-67
2022/10/02 15:34:21;;;;;;;;;;;;;;;;;;4996874;28;19910;-67
2022/10/02 15:36:47;;;;;;;;;;;;;;;;;;4982715;28;20410;-67
2022/10/02 15:39:13;;;;;;;;;;;;;;;;;;4991676;28;19965;-67
2022/10/02 15:41:39;;;;;;;;;;;;;;;;;;4983616;28;19918;-67
2022/10/02 15:44:05;;;;;;;;;;;;;;;;;;4983758;28;19925;-67
2022/10/02 15:46:31;;;;;;;;;;;;;;;;;;4990886;28;19914;-67
2022/10/02 15:48:57;;;;;;;;;;;;;;;;;;4991374;28;19968;-67
2022/10/02 15:51:23;;;;;;;;;;;;;;;;;;4984933;28;19914;-67
2022/10/02 15:53:50;;;;;;;;;;;;;;;;;;4972233;28;19969;-67
2022/10/02 15:56:16;;;;;;;;;;;;;;;;;;4985362;28;19999;-67
2022/10/02 15:58:42;;;;;;;;;;;;;;;;;;4975245;28;19949;-67
2022/10/02 16:01:07;;;;;;;;;;;;;;;;;;4983619;28;19925;-66
2022/10/02 16:03:33;;;;;;;;;;;;;;;;;;4993504;28;19914;-66
2022/10/02 16:05:59;;;;;;;;;;;;;;;;;;4979673;28;19940;-67
2022/10/02 16:08:25;;;;;;;;;;;;;;;;;;4976461;28;19918;-67
2022/10/02 16:10:51;;;;;;;;;;;;;;;;;;4982299;28;19960;-67
2022/10/02 16:13:17;;;;;;;;;;;;;;;;;;4991622;28;19921;-67
2022/10/02 16:15:43;;;;;;;;;;;;;;;;;;4982412;28;20330;-67
2022/10/02 16:18:12;;;;;;;;;;;;;;;;;;4991425;28;19969;-72
2022/10/02 16:20:38;;;;;;;;;;;;;;;;;;4983278;28;19914;-66
2022/10/02 16:23:04;;;;;;;;;;;;;;;;;;4991380;28;20390;-67
2022/10/02 16:25:30;;;;;;;;;;;;;;;;;;4975121;28;20005;-67
2022/10/02 16:27:56;;;;;;;;;;;;;;;;;;4974712;28;19964;-67
2022/10/02 16:30:22;;;;;;;;;;;;;;;;;;4990971;28;19914;-67
2022/10/02 16:32:48;;;;;;;;;;;;;;;;;;4989105;28;19917;-68
2022/10/02 16:35:17;;;;;;;;;;;;;;;;;;4984859;28;19917;-66
2022/10/02 16:37:44;;;;;;;;;;;;;;;;;;4985164;28;19921;-66
2022/10/02 16:40:10;;;;;;;;;;;;;;;;;;4991288;28;19929;-67
2022/10/02 16:42:38;;;;;;;;;;;;;;;;;;4991410;28;19914;-66
2022/10/02 16:45:04;;;;;;;;;;;;;;;;;;4993873;28;20367;-67
2022/10/02 16:47:30;;;;;;;;;;;;;;;;;;4994465;28;19925;-67
2022/10/02 16:49:56;;;;;;;;;;;;;;;;;;4994378;28;19914;-67
2022/10/02 16:52:22;;;;;;;;;;;;;;;;;;4994899;28;19968;-66
2022/10/02 16:54:48;;;;;;;;;;;;;;;;;;4986265;28;19953;-67
2022/10/02 16:57:13;;;;;;;;;;;;;;;;;;4988454;28;19918;-67